This is the latest recevied weather packets stored in our database for station/object N4VTB-13. If no packets are shown the sender has not sent any weather packets the latest 10 day(s).
| Time | Temp. | Humidity | Pressure | Rain* | Wind** | Luminosity | Snow |
|---|---|---|---|---|---|---|---|
| 1777903276 | 12.78° C | 83% | 1010.9 hPa | 0 mm | - | 23 W/m² | - |
| 1777902676 | 12.22° C | 83% | 1010.9 hPa | 0 mm | - | 21 W/m² | - |
| 1777896076 | 12.78° C | 85% | 1010.6 hPa | 0 mm | - | 0 W/m² | - |
| 1777895476 | 12.78° C | 84% | 1010.6 hPa | 0 mm | - | 0 W/m² | - |
| 1777894896 | 12.78° C | 83% | 1010.8 hPa | 0 mm | - | 0 W/m² | - |
| 1777882876 | 15.56° C | 72% | 1010.7 hPa | 0 mm | - | 0 W/m² | - |
| 1777881676 | 15.56° C | 71% | 1010.7 hPa | 0 mm | - | 0 W/m² | - |
| 1777881075 | 15.56° C | 71% | 1010.8 hPa | 0 mm | - | 0 W/m² | - |
| 1777879275 | 16.11° C | 68% | 1010.9 hPa | 0 mm | - | 0 W/m² | - |
| 1777877476 | 16.67° C | 66% | 1010.9 hPa | 0 mm | - | 0 W/m² | - |
| 1777874476 | 16.67° C | 64% | 1010.7 hPa | 0 mm | - | 0 W/m² | - |
| 1777873876 | 16.67° C | 64% | 1010.6 hPa | 0 mm | - | 0 W/m² | - |
| 1777872676 | 16.67° C | 63% | 1010.6 hPa | 0 mm | - | 0 W/m² | - |
| 1777868476 | 17.78° C | 62% | 1010.6 hPa | 0 mm | - | 0 W/m² | - |
| 1777861296 | 23.33° C | 54% | 1010.2 hPa | 0 mm | - | 19 W/m² | - |
| 1777858875 | 25° C | 48% | 1010.4 hPa | 0 mm | - | 221 W/m² | - |
| 1777852875 | 26.67° C | 41% | 1011.1 hPa | 0 mm | - | 47 W/m² | - |
| 1777850475 | 26.11° C | 41% | 1011.8 hPa | 0 mm | - | 62 W/m² | - |
| 1777849875 | 26.11° C | 42% | 1011.9 hPa | 0 mm | - | 84 W/m² | - |
| 1777848695 | 26.11° C | 44% | 1012 hPa | 0 mm | - | 53 W/m² | - |
| 1777844477 | 26.67° C | 39% | 1012.8 hPa | 0 mm | - | 69 W/m² | - |
| 1777832477 | 24.44° C | 46% | 1014.9 hPa | 0 mm | - | 747 W/m² | - |
| 1777825896 | 18.89° C | 62% | 1015.4 hPa | 0 mm | - | 506 W/m² | - |
| 1777824076 | 15.56° C | 78% | 1015.4 hPa | 0 mm | - | 338 W/m² | - |
| 1777821676 | 12.78° C | 87% | 1015.4 hPa | 0 mm | - | 63 W/m² | - |
* Rain latest hour (hover to see other rain measurements)
** Current wind speed in m/s (hover to see current wind gust speed)